Time;durP1;ratioP1;P1;durP2;ratioP2;P2;SDS_P1;SDS_P2;PMS_P1;PMS_P2;Temp;Humidity;BMP_temperature;BMP_pressure;BME280_temperature;BME280_humidity;BME280_pressure;Samples;Min_cycle;Max_cycle;Signal;HPM_P1;HPM_P2
2023/01/25 00:00:30;;;;;;;34.03;18.13;;;4.90;99.90;;;;;;4891102;29;20467;-78
2023/01/25 00:02:57;;;;;;;32.72;17.48;;;4.90;99.90;;;;;;4870746;29;20053;-79
2023/01/25 00:05:23;;;;;;;27.15;16.52;;;4.80;99.90;;;;;;4882706;29;20048;-79
2023/01/25 00:07:50;;;;;;;28.67;16.73;;;4.80;99.90;;;;;;4885486;29;20060;-79
2023/01/25 00:10:17;;;;;;;28.67;17.30;;;4.80;99.90;;;;;;4886514;29;20049;-79
2023/01/25 00:12:44;;;;;;;34.72;18.55;;;4.70;99.90;;;;;;4885107;29;20071;-78
2023/01/25 00:15:11;;;;;;;29.35;17.38;;;4.70;99.90;;;;;;4883055;29;20045;-79
2023/01/25 00:17:38;;;;;;;29.25;17.08;;;4.70;99.90;;;;;;4893165;29;20411;-78
2023/01/25 00:20:05;;;;;;;28.77;17.92;;;4.70;99.90;;;;;;4883184;29;20041;-78
2023/01/25 00:22:32;;;;;;;29.70;17.33;;;4.70;99.90;;;;;;4887492;29;20135;-78
2023/01/25 00:24:58;;;;;;;30.67;17.67;;;4.70;99.90;;;;;;4885682;29;20060;-78
2023/01/25 00:27:25;;;;;;;31.88;18.55;;;4.70;99.90;;;;;;4889268;29;20056;-78
2023/01/25 00:29:52;;;;;;;34.30;17.90;;;4.70;99.90;;;;;;4888870;29;20057;-78
2023/01/25 00:32:18;;;;;;;31.70;17.55;;;4.70;99.90;;;;;;4884257;29;20064;-79
2023/01/25 00:34:49;;;;;;;31.20;17.13;;;4.60;99.90;;;;;;4888198;29;20073;-79
2023/01/25 00:37:36;;;;;;;31.70;18.05;;;4.60;99.90;;;;;;4889609;29;20455;-78
2023/01/25 00:40:03;;;;;;;32.65;18.02;;;4.70;99.90;;;;;;4885869;29;20049;-79
2023/01/25 00:42:30;;;;;;;27.73;16.65;;;4.60;99.90;;;;;;4888485;29;20060;-79
2023/01/25 00:44:57;;;;;;;30.55;17.92;;;4.60;99.90;;;;;;4895674;29;20057;-79
2023/01/25 00:47:24;;;;;;;30.70;17.70;;;4.60;99.90;;;;;;4888864;29;20056;-79
2023/01/25 00:49:50;;;;;;;31.00;17.30;;;4.60;99.90;;;;;;4882982;29;20057;-77
2023/01/25 00:52:17;;;;;;;28.48;17.23;;;4.60;99.90;;;;;;4887819;29;20063;-77
2023/01/25 00:54:43;;;;;;;32.88;18.58;;;4.60;99.90;;;;;;4886308;29;20053;-77
2023/01/25 00:57:10;;;;;;;32.38;18.67;;;4.60;99.90;;;;;;4883407;29;20048;-79
2023/01/25 00:59:37;;;;;;;29.55;17.88;;;4.60;99.90;;;;;;4881830;29;20064;-77
2023/01/25 01:02:04;;;;;;;29.77;17.63;;;4.60;99.90;;;;;;4875526;29;20041;-77
2023/01/25 01:04:31;;;;;;;29.52;17.52;;;4.50;99.90;;;;;;4886787;29;20496;-77
2023/01/25 01:06:57;;;;;;;29.75;16.90;;;4.50;99.90;;;;;;4883862;29;20049;-78
2023/01/25 01:09:24;;;;;;;33.00;18.77;;;4.50;99.90;;;;;;4885774;29;20049;-78
2023/01/25 01:11:51;;;;;;;30.33;17.02;;;4.50;99.90;;;;;;4890798;29;20143;-77
2023/01/25 01:14:19;;;;;;;34.25;19.85;;;4.50;99.90;;;;;;4884295;29;20069;-77
2023/01/25 01:16:46;;;;;;;28.77;17.48;;;4.50;99.90;;;;;;4881646;29;20139;-77
2023/01/25 01:19:13;;;;;;;28.67;17.60;;;4.50;99.90;;;;;;4890994;29;20117;-80
2023/01/25 01:21:40;;;;;;;33.13;18.67;;;4.60;99.90;;;;;;4886540;29;20530;-78
2023/01/25 01:24:09;;;;;;;30.55;16.27;;;4.60;99.90;;;;;;4885284;29;20411;-78
2023/01/25 01:26:36;;;;;;;32.92;18.38;;;4.60;99.90;;;;;;4896262;29;20045;-78
2023/01/25 01:29:03;;;;;;;31.40;16.52;;;4.60;99.90;;;;;;4896599;29;20532;-78
2023/01/25 01:31:29;;;;;;;37.55;17.55;;;4.60;99.90;;;;;;4888281;29;20048;-78
2023/01/25 01:33:57;;;;;;;34.28;17.60;;;4.60;99.90;;;;;;4885196;29;20095;-78
2023/01/25 01:36:26;;;;;;;29.60;17.23;;;4.60;99.90;;;;;;4888457;29;20061;-78
2023/01/25 01:38:53;;;;;;;35.75;17.73;;;4.60;99.90;;;;;;4877851;29;20057;-78
2023/01/25 01:41:20;;;;;;;32.28;17.20;;;4.50;99.90;;;;;;4888149;29;20049;-78
2023/01/25 01:43:47;;;;;;;31.85;17.88;;;4.60;99.90;;;;;;4883041;29;20045;-78
2023/01/25 01:46:36;;;;;;;31.00;18.52;;;4.60;99.90;;;;;;4890941;29;20052;-78
2023/01/25 01:49:18;;;;;;;29.17;17.13;;;4.50;99.90;;;;;;4869625;29;20052;-78
2023/01/25 01:51:47;;;;;;;31.77;17.70;;;4.50;99.90;;;;;;4879908;29;20555;-78
2023/01/25 01:54:17;;;;;;;30.20;17.77;;;4.60;99.90;;;;;;4887507;29;20087;-78
2023/01/25 01:56:57;;;;;;;32.95;17.77;;;4.60;99.90;;;;;;4891555;29;20606;-78
2023/01/25 01:59:29;;;;;;;32.95;17.88;;;4.60;99.90;;;;;;4883259;29;20515;-78
2023/01/25 02:01:56;;;;;;;29.75;17.20;;;4.60;99.90;;;;;;4886239;29;20053;-78
2023/01/25 02:04:26;;;;;;;30.17;17.33;;;4.60;99.90;;;;;;4870237;29;20472;-78
2023/01/25 02:07:16;;;;;;;28.77;17.38;;;4.60;99.90;;;;;;4886436;29;20140;-78
2023/01/25 02:09:43;;;;;;;;;;;4.60;99.90;;;;;;4882802;29;20084;-78
2023/01/25 02:12:11;;;;;;;33.13;17.95;;;4.60;99.90;;;;;;4891818;29;20309;-78
2023/01/25 02:14:46;;;;;;;31.85;17.48;;;4.60;99.90;;;;;;4870632;29;20143;-78
2023/01/25 02:17:13;;;;;;;29.20;17.48;;;4.50;99.90;;;;;;4882668;29;20659;-78
2023/01/25 02:20:02;;;;;;;32.80;18.98;;;4.60;99.90;;;;;;4887374;29;20055;-77
2023/01/25 02:22:43;;;;;;;35.08;18.45;;;4.50;99.90;;;;;;4886790;29;20514;-78
2023/01/25 02:25:13;;;;;;;33.47;19.27;;;4.60;99.90;;;;;;4883484;29;20055;-78
2023/01/25 02:27:54;;;;;;;36.03;18.05;;;4.60;99.90;;;;;;4881112;29;20073;-79
2023/01/25 02:30:21;;;;;;;30.23;17.65;;;4.60;99.90;;;;;;4869223;29;20568;-78
2023/01/25 02:32:48;;;;;;;33.90;19.17;;;4.60;99.90;;;;;;4876300;29;20488;-78
2023/01/25 02:35:20;;;;;;;34.08;19.70;;;4.60;99.90;;;;;;4886505;29;20053;-78
2023/01/25 02:37:47;;;;;;;29.05;18.27;;;4.60;99.90;;;;;;4889638;29;20139;-77
2023/01/25 02:40:16;;;;;;;33.35;17.77;;;4.50;99.90;;;;;;4889030;29;20554;-78
2023/01/25 02:42:43;;;;;;;32.92;17.98;;;4.50;99.90;;;;;;4886177;29;20052;-78
2023/01/25 02:45:14;;;;;;;30.08;17.08;;;4.50;99.90;;;;;;4881654;29;20044;-78
2023/01/25 02:47:41;;;;;;;32.72;18.38;;;4.50;99.90;;;;;;4884730;29;20080;-78
2023/01/25 02:50:08;;;;;;;32.33;18.95;;;4.50;99.90;;;;;;4866824;29;20048;-78
2023/01/25 02:52:35;;;;;;;33.20;18.90;;;4.50;99.90;;;;;;4881611;29;20528;-78
2023/01/25 02:55:02;;;;;;;29.33;17.88;;;4.50;99.90;;;;;;4886766;29;20056;-78
2023/01/25 02:57:29;;;;;;;30.17;17.80;;;4.50;99.90;;;;;;4866163;29;20060;-78
2023/01/25 02:59:55;;;;;;;33.47;17.92;;;4.50;99.90;;;;;;4884097;29;20082;-77
2023/01/25 03:02:22;;;;;;;30.65;16.67;;;4.50;99.90;;;;;;4880744;29;20049;-77
2023/01/25 03:04:50;;;;;;;33.85;17.70;;;4.60;99.90;;;;;;4893250;29;20048;-78
2023/01/25 03:07:16;;;;;;;36.70;19.02;;;4.50;99.90;;;;;;4889985;29;20045;-78
2023/01/25 03:09:43;;;;;;;33.50;18.60;;;4.50;99.90;;;;;;4882984;29;20064;-78
2023/01/25 03:12:10;;;;;;;32.53;17.67;;;4.50;99.90;;;;;;4889472;29;20074;-78
2023/01/25 03:14:36;;;;;;;31.67;18.13;;;4.50;99.90;;;;;;4888081;29;20068;-77
2023/01/25 03:17:03;;;;;;;32.97;18.00;;;4.40;99.90;;;;;;4887801;29;20135;-78
2023/01/25 03:19:30;;;;;;;31.65;17.73;;;4.40;99.90;;;;;;4882112;29;20430;-78
2023/01/25 03:21:57;;;;;;;36.92;19.52;;;4.30;99.90;;;;;;4893753;29;20053;-78
2023/01/25 03:24:24;;;;;;;36.17;18.60;;;4.20;99.90;;;;;;4890612;29;20132;-78
2023/01/25 03:27:09;;;;;;;37.13;19.98;;;4.30;99.90;;;;;;4884103;29;20123;-78
2023/01/25 03:29:36;;;;;;;40.42;19.35;;;4.30;99.90;;;;;;4887445;29;20076;-78
2023/01/25 03:32:03;;;;;;;34.88;19.55;;;4.20;99.90;;;;;;4876455;29;20055;-78
2023/01/25 03:34:30;;;;;;;38.05;19.27;;;4.20;99.90;;;;;;4881325;29;20057;-79
2023/01/25 03:36:57;;;;;;;38.10;20.52;;;4.30;99.90;;;;;;4877813;29;20096;-78
2023/01/25 03:39:24;;;;;;;36.53;19.75;;;4.30;99.90;;;;;;4881965;29;20082;-77
2023/01/25 03:41:51;;;;;;;36.97;19.58;;;4.30;99.90;;;;;;4885646;29;20059;-78
2023/01/25 03:44:17;;;;;;;34.45;19.58;;;4.20;99.90;;;;;;4882054;29;20556;-78
2023/01/25 03:46:44;;;;;;;36.95;19.48;;;4.20;99.90;;;;;;4887875;29;20044;-78
2023/01/25 03:49:11;;;;;;;33.90;18.55;;;4.20;99.90;;;;;;4895300;29;20074;-78
2023/01/25 03:51:38;;;;;;;33.35;18.75;;;4.20;99.90;;;;;;4890511;29;20087;-78
2023/01/25 03:54:07;;;;;;;36.95;21.05;;;4.20;99.90;;;;;;4866427;29;20045;-78
2023/01/25 03:56:33;;;;;;;37.20;21.70;;;4.10;99.90;;;;;;4886400;29;20118;-78
2023/01/25 03:59:00;;;;;;;38.88;21.17;;;4.20;99.90;;;;;;4888819;29;20049;-77
2023/01/25 04:01:27;;;;;;;37.35;19.30;;;4.20;99.90;;;;;;4883268;29;20087;-78
2023/01/25 04:03:54;;;;;;;37.30;19.70;;;4.20;99.90;;;;;;4883949;29;20530;-78
2023/01/25 04:06:20;;;;;;;37.90;20.30;;;4.20;99.90;;;;;;4891011;29;20063;-77
2023/01/25 04:08:47;;;;;;;38.95;19.65;;;4.10;99.90;;;;;;4887377;29;20064;-78
2023/01/25 04:11:14;;;;;;;38.55;21.52;;;4.10;99.90;;;;;;4883299;29;20128;-78
2023/01/25 04:13:40;;;;;;;39.42;20.55;;;4.20;99.90;;;;;;4886255;29;20091;-78
2023/01/25 04:16:10;;;;;;;36.88;20.15;;;4.20;99.90;;;;;;4886913;29;20049;-78
2023/01/25 04:18:38;;;;;;;38.63;20.92;;;4.30;99.90;;;;;;4883720;29;20503;-77
2023/01/25 04:21:05;;;;;;;36.25;19.48;;;4.30;99.90;;;;;;4870083;29;20145;-78
2023/01/25 04:23:31;;;;;;;36.78;19.38;;;4.30;99.90;;;;;;4889815;29;20529;-77
2023/01/25 04:26:00;;;;;;;36.95;20.45;;;4.30;99.90;;;;;;4888278;29;20049;-78
2023/01/25 04:28:27;;;;;;;41.88;20.80;;;4.20;99.90;;;;;;4884305;29;20049;-78
2023/01/25 04:30:55;;;;;;;37.22;20.42;;;4.20;99.90;;;;;;4889304;29;20056;-78
2023/01/25 04:33:22;;;;;;;36.13;20.08;;;4.20;99.90;;;;;;4891689;29;20064;-78
2023/01/25 04:35:49;;;;;;;40.30;20.73;;;4.30;99.90;;;;;;4888493;29;20496;-78
2023/01/25 04:38:16;;;;;;;37.72;20.25;;;4.30;99.90;;;;;;4883214;29;20056;-78
2023/01/25 04:40:44;;;;;;;37.88;19.75;;;4.30;99.90;;;;;;4879378;29;20140;-77
2023/01/25 04:43:13;;;;;;;35.40;19.85;;;4.40;99.90;;;;;;4888200;29;20423;-78
2023/01/25 04:45:40;;;;;;;32.08;18.50;;;4.40;99.90;;;;;;4884876;29;20425;-78
2023/01/25 04:48:09;;;;;;;36.88;19.52;;;4.40;99.90;;;;;;4885494;29;20133;-78
2023/01/25 04:50:40;;;;;;;40.58;20.17;;;4.20;99.90;;;;;;4889398;29;20059;-78
2023/01/25 04:53:09;;;;;;;37.47;20.38;;;4.10;99.90;;;;;;4884324;29;20048;-78
2023/01/25 04:55:36;;;;;;;37.83;20.77;;;4.10;99.90;;;;;;4878556;29;20533;-78
2023/01/25 04:58:03;;;;;;;38.63;20.02;;;4.10;99.90;;;;;;4895538;29;20136;-78
2023/01/25 05:00:31;;;;;;;35.47;19.30;;;4.10;99.90;;;;;;4891135;29;20088;-78
2023/01/25 05:02:58;;;;;;;38.85;19.88;;;4.00;99.90;;;;;;4887995;29;20140;-78
2023/01/25 05:05:24;;;;;;;37.08;20.45;;;4.10;99.90;;;;;;4885792;29;20055;-78
2023/01/25 05:07:51;;;;;;;37.72;20.48;;;4.10;99.90;;;;;;4889653;29;20092;-78
2023/01/25 05:10:18;;;;;;;34.75;19.70;;;4.20;99.90;;;;;;4885453;29;20089;-78
2023/01/25 05:12:44;;;;;;;39.85;20.85;;;4.20;99.90;;;;;;4883843;29;20052;-78
2023/01/25 05:15:11;;;;;;;38.13;20.25;;;4.20;99.90;;;;;;4888877;29;20139;-78
2023/01/25 05:17:38;;;;;;;35.20;19.20;;;4.20;99.90;;;;;;4889196;29;20060;-78
2023/01/25 05:20:05;;;;;;;40.08;20.15;;;4.10;99.90;;;;;;4886471;29;20049;-78
2023/01/25 05:22:32;;;;;;;37.13;19.85;;;4.10;99.90;;;;;;4881778;29;20084;-77
2023/01/25 05:25:00;;;;;;;35.58;19.65;;;4.00;99.90;;;;;;4895747;29;20136;-78
2023/01/25 05:27:27;;;;;;;40.03;20.92;;;4.10;99.90;;;;;;4886987;29;20060;-78
2023/01/25 05:29:55;;;;;;;39.33;20.58;;;4.10;99.90;;;;;;4867617;29;20052;-78
2023/01/25 05:32:23;;;;;;;39.67;20.05;;;4.10;99.90;;;;;;4885029;29;20052;-77
2023/01/25 05:34:49;;;;;;;42.55;20.27;;;4.10;99.90;;;;;;4889074;29;20107;-78
2023/01/25 05:37:18;;;;;;;34.55;18.92;;;4.10;99.90;;;;;;4885542;29;20151;-78
2023/01/25 05:39:45;;;;;;;37.88;19.52;;;3.90;99.90;;;;;;4884699;29;20076;-78
2023/01/25 05:42:17;;;;;;;39.22;20.75;;;3.90;99.90;;;;;;4894163;29;20136;-76
2023/01/25 05:44:44;;;;;;;39.03;19.90;;;3.90;99.90;;;;;;4887520;29;20467;-78
2023/01/25 05:47:15;;;;;;;42.35;19.98;;;3.80;99.90;;;;;;4883473;29;20486;-78
2023/01/25 05:49:42;;;;;;;43.90;21.27;;;3.90;99.90;;;;;;4869606;29;20061;-78
2023/01/25 05:52:13;;;;;;;39.65;19.88;;;3.90;99.90;;;;;;4889082;29;20052;-78
2023/01/25 05:54:40;;;;;;;41.78;20.08;;;4.00;99.90;;;;;;4873000;29;20137;-76
2023/01/25 05:57:07;;;;;;;41.53;21.08;;;4.00;99.90;;;;;;4885144;29;20076;-77
2023/01/25 05:59:33;;;;;;;39.45;20.83;;;4.00;99.90;;;;;;4893678;29;20140;-77
2023/01/25 06:02:00;;;;;;;38.78;20.38;;;4.00;99.90;;;;;;4892173;29;20052;-77
2023/01/25 06:04:27;;;;;;;40.58;20.45;;;4.10;99.90;;;;;;4886815;29;20472;-77
2023/01/25 06:06:54;;;;;;;39.78;20.20;;;4.10;99.90;;;;;;4869616;29;20124;-77
2023/01/25 06:09:21;;;;;;;36.83;20.23;;;4.10;99.90;;;;;;4895685;29;20055;-77
2023/01/25 06:11:48;;;;;;;37.42;20.13;;;4.20;99.90;;;;;;4891303;29;20049;-78
2023/01/25 06:14:14;;;;;;;38.33;20.55;;;4.20;99.90;;;;;;4883904;29;20132;-78
2023/01/25 06:16:41;;;;;;;40.97;20.42;;;4.20;99.90;;;;;;4872729;29;20081;-77
2023/01/25 06:19:11;;;;;;;37.92;20.17;;;4.20;99.90;;;;;;4888713;29;20071;-77
2023/01/25 06:21:37;;;;;;;39.30;20.65;;;4.20;99.90;;;;;;4885285;29;20144;-78
2023/01/25 06:24:04;;;;;;;38.67;20.48;;;4.20;99.90;;;;;;4885948;29;20044;-77
2023/01/25 06:26:31;;;;;;;39.78;19.48;;;4.20;99.90;;;;;;4890053;29;20048;-77
2023/01/25 06:28:58;;;;;;;42.00;21.02;;;4.20;99.90;;;;;;4888080;29;20048;-77
2023/01/25 06:31:24;;;;;;;42.35;21.90;;;4.10;99.90;;;;;;4864103;29;20057;-77
2023/01/25 06:33:51;;;;;;;39.45;20.45;;;4.00;99.90;;;;;;4886920;29;20116;-77
2023/01/25 06:36:19;;;;;;;40.67;20.55;;;4.10;99.90;;;;;;4888053;29;20404;-78
2023/01/25 06:38:50;;;;;;;35.28;19.70;;;3.90;99.90;;;;;;4883681;29;20527;-79
2023/01/25 06:41:18;;;;;;;36.60;20.98;;;3.90;99.90;;;;;;4865010;29;20132;-78
2023/01/25 06:43:46;;;;;;;39.42;21.10;;;4.00;99.90;;;;;;4887873;29;20484;-78
2023/01/25 06:46:13;;;;;;;37.50;20.10;;;4.00;99.90;;;;;;4885489;29;20503;-78
2023/01/25 06:48:43;;;;;;;39.67;19.58;;;4.10;99.90;;;;;;4882502;29;20049;-78
2023/01/25 06:51:14;;;;;;;34.50;19.20;;;4.10;99.90;;;;;;4892842;29;20044;-77
2023/01/25 06:53:42;;;;;;;35.42;19.63;;;4.10;99.90;;;;;;4890348;29;20080;-77
2023/01/25 06:56:12;;;;;;;36.67;19.42;;;4.10;99.90;;;;;;4886194;29;20049;-78
2023/01/25 06:58:40;;;;;;;40.15;20.63;;;4.20;99.90;;;;;;4881396;29;20052;-78
2023/01/25 07:01:12;;;;;;;37.90;21.00;;;4.20;99.90;;;;;;4860801;29;20139;-78
2023/01/25 07:03:40;;;;;;;41.53;21.95;;;4.20;99.90;;;;;;4884136;29;20052;-78
2023/01/25 07:06:08;;;;;;;35.50;19.85;;;4.20;99.90;;;;;;4880642;29;20049;-78
2023/01/25 07:08:36;;;;;;;41.00;19.42;;;4.30;99.90;;;;;;4868280;29;20049;-78
2023/01/25 07:11:05;;;;;;;36.78;18.73;;;4.30;99.90;;;;;;4888726;29;20487;-78
2023/01/25 07:13:33;;;;;;;34.38;18.58;;;4.30;99.90;;;;;;4883255;29;20092;-77
2023/01/25 07:16:03;;;;;;;35.28;18.55;;;4.30;99.90;;;;;;4882317;29;20102;-78
2023/01/25 07:18:31;;;;;;;37.00;19.98;;;4.30;99.90;;;;;;4892789;29;20049;-79
2023/01/25 07:21:24;;;;;;;35.80;18.63;;;4.30;99.90;;;;;;4859730;29;20056;-77
2023/01/25 07:23:51;;;;;;;37.05;19.40;;;4.30;99.90;;;;;;4885463;29;20547;-78
2023/01/25 07:26:24;;;;;;;37.72;20.15;;;4.20;99.90;;;;;;4891754;29;20044;-79
2023/01/25 07:28:52;;;;;;;36.38;19.35;;;4.10;99.90;;;;;;4889773;29;20089;-78
2023/01/25 07:31:19;;;;;;;35.70;19.75;;;4.10;99.90;;;;;;4885645;29;20084;-79
2023/01/25 07:33:50;;;;;;;37.45;19.85;;;4.00;99.90;;;;;;4885156;29;20056;-78
2023/01/25 07:36:17;;;;;;;34.88;20.77;;;3.90;99.90;;;;;;4894265;29;20053;-78
2023/01/25 07:38:45;;;;;;;36.60;19.60;;;3.90;99.90;;;;;;4888806;29;20049;-78
2023/01/25 07:41:12;;;;;;;36.50;18.67;;;3.80;99.90;;;;;;4869121;29;20053;-78
2023/01/25 07:43:38;;;;;;;35.15;19.70;;;3.90;99.90;;;;;;4886941;29;20514;-78
2023/01/25 07:46:11;;;;;;;38.60;20.67;;;4.00;99.90;;;;;;4888422;29;20095;-78
2023/01/25 07:48:38;;;;;;;35.55;19.55;;;4.00;99.90;;;;;;4868689;29;20052;-78
2023/01/25 07:51:11;;;;;;;37.97;20.17;;;4.00;99.90;;;;;;4885381;29;20064;-78
2023/01/25 07:53:42;;;;;;;37.60;20.30;;;4.00;99.90;;;;;;4891605;29;20430;-78
2023/01/25 07:56:10;;;;;;;35.80;19.67;;;4.00;99.90;;;;;;4888274;29;20049;-78
2023/01/25 07:58:38;;;;;;;33.67;18.13;;;4.00;99.90;;;;;;4887567;29;20145;-79
2023/01/25 08:01:18;;;;;;;36.03;19.58;;;4.10;99.90;;;;;;4882055;29;20044;-78
2023/01/25 08:03:46;;;;;;;36.30;18.95;;;4.10;99.90;;;;;;4893007;29;20080;-78
2023/01/25 08:06:13;;;;;;;34.60;20.38;;;4.20;99.90;;;;;;4889408;29;20464;-78
2023/01/25 08:08:43;;;;;;;39.08;19.90;;;4.20;99.90;;;;;;4889058;29;20060;-78
2023/01/25 08:11:25;;;;;;;35.40;19.63;;;4.20;99.90;;;;;;4886604;29;20052;-78
2023/01/25 08:13:52;;;;;;;38.05;20.58;;;4.20;99.90;;;;;;4884793;29;20056;-78
2023/01/25 08:16:21;;;;;;;36.22;19.08;;;4.20;99.90;;;;;;4884436;29;20056;-78
2023/01/25 08:18:57;;;;;;;35.43;19.73;;;4.20;99.90;;;;;;4889423;29;20063;-78
2023/01/25 08:21:28;;;;;;;37.78;20.50;;;4.30;99.90;;;;;;4880643;29;20314;-78
2023/01/25 08:23:59;;;;;;;36.08;21.25;;;4.30;99.90;;;;;;4877288;29;20060;-78
2023/01/25 08:26:27;;;;;;;42.80;21.60;;;4.30;99.90;;;;;;4884682;29;20418;-79
2023/01/25 08:28:55;;;;;;;32.92;18.80;;;4.30;99.90;;;;;;4882837;29;20081;-78
2023/01/25 08:31:27;;;;;;;36.40;19.48;;;4.30;99.90;;;;;;4880381;29;20055;-77
2023/01/25 08:33:54;;;;;;;33.40;19.55;;;4.40;99.90;;;;;;4869618;29;20101;-78
2023/01/25 08:36:23;;;;;;;38.45;20.63;;;4.30;99.90;;;;;;4886042;29;20096;-77
2023/01/25 08:38:54;;;;;;;38.00;20.45;;;4.40;99.90;;;;;;4881667;29;20048;-78
2023/01/25 08:41:21;;;;;;;40.20;20.92;;;4.30;99.90;;;;;;4884363;29;20055;-77
2023/01/25 08:43:49;;;;;;;37.80;19.77;;;4.30;99.90;;;;;;4884497;29;20049;-77
2023/01/25 08:46:16;;;;;;;49.03;23.13;;;4.30;99.90;;;;;;4894358;29;20061;-77
2023/01/25 08:48:43;;;;;;;37.20;20.60;;;4.30;99.90;;;;;;4890738;29;20049;-78
2023/01/25 08:51:12;;;;;;;42.55;22.13;;;4.30;99.90;;;;;;4886800;29;20053;-77
2023/01/25 08:53:39;;;;;;;37.95;20.45;;;4.30;99.90;;;;;;4886826;29;20056;-78
2023/01/25 08:56:09;;;;;;;44.50;25.10;;;4.40;99.90;;;;;;4887964;29;20052;-77
2023/01/25 08:58:38;;;;;;;43.88;21.63;;;4.40;99.90;;;;;;4883665;29;20048;-78
2023/01/25 09:01:08;;;;;;;47.78;25.23;;;4.40;99.90;;;;;;4883338;29;20072;-78
2023/01/25 09:03:46;;;;;;;47.15;22.95;;;4.30;99.90;;;;;;4889167;29;20049;-78
2023/01/25 09:06:13;;;;;;;44.58;22.77;;;4.40;99.90;;;;;;4885278;29;20057;-78
2023/01/25 09:08:40;;;;;;;40.65;21.15;;;4.40;99.90;;;;;;4885432;29;20125;-77
2023/01/25 09:11:10;;;;;;;36.47;20.98;;;4.40;99.90;;;;;;4886108;29;20542;-77
2023/01/25 09:13:37;;;;;;;39.40;21.10;;;4.40;99.90;;;;;;4891507;29;20503;-78
2023/01/25 09:16:06;;;;;;;38.22;21.88;;;4.40;99.90;;;;;;4888532;29;20084;-77
2023/01/25 09:18:35;;;;;;;41.25;21.02;;;4.40;99.90;;;;;;4883906;29;20063;-78
2023/01/25 09:21:09;;;;;;;38.90;21.05;;;4.40;99.90;;;;;;4887647;29;20493;-79
2023/01/25 09:23:36;;;;;;;39.00;20.45;;;4.40;99.90;;;;;;4881463;29;20080;-79
2023/01/25 09:26:18;;;;;;;44.67;23.58;;;4.40;99.90;;;;;;4882654;29;20064;-78
2023/01/25 09:28:49;;;;;;;43.15;21.40;;;4.40;99.90;;;;;;4888886;29;20135;-78
2023/01/25 09:31:16;;;;;;;43.47;22.23;;;4.40;99.90;;;;;;4889874;29;20056;-78
2023/01/25 09:33:52;;;;;;;35.42;19.90;;;4.30;99.90;;;;;;4885193;29;20060;-78
2023/01/25 09:36:19;;;;;;;36.45;19.65;;;4.30;99.90;;;;;;4888211;29;20052;-78
2023/01/25 09:38:47;;;;;;;37.72;19.50;;;4.30;99.90;;;;;;4894479;29;20060;-78
2023/01/25 09:41:33;;;;;;;34.85;18.67;;;4.30;99.90;;;;;;4888660;29;20088;-78
2023/01/25 09:44:39;;;;;;;37.97;19.75;;;4.20;99.90;;;;;;4886670;29;20057;-78
2023/01/25 09:47:16;;;;;;;36.45;20.23;;;4.20;99.90;;;;;;4888641;29;20388;-78
2023/01/25 09:49:58;;;;;;;37.78;18.65;;;4.20;99.90;;;;;;4887070;29;20075;-78
2023/01/25 09:52:38;;;;;;;39.17;20.42;;;4.10;99.90;;;;;;4883374;29;20059;-79
2023/01/25 09:55:13;;;;;;;35.10;19.08;;;4.20;99.90;;;;;;4864213;29;20095;-79
2023/01/25 09:57:44;;;;;;;34.65;19.52;;;4.20;99.90;;;;;;4873104;29;20499;-78
2023/01/25 10:00:22;;;;;;;33.42;19.00;;;4.20;99.90;;;;;;4881687;29;20044;-78
2023/01/25 10:02:57;;;;;;;32.35;18.83;;;4.20;99.90;;;;;;4880720;29;20064;-78
2023/01/25 10:05:39;;;;;;;36.00;20.25;;;4.30;99.90;;;;;;4880700;29;20523;-78
2023/01/25 10:08:16;;;;;;;36.92;19.90;;;4.30;99.90;;;;;;4873272;29;20056;-78
2023/01/25 10:10:45;;;;;;;37.92;21.20;;;4.30;99.90;;;;;;4875378;29;20055;-78
2023/01/25 10:13:14;;;;;;;35.83;20.05;;;4.40;99.90;;;;;;4882107;29;20131;-79
2023/01/25 10:15:51;;;;;;;35.10;19.33;;;4.40;99.90;;;;;;4883126;29;20083;-78
2023/01/25 10:18:50;;;;;;;38.85;19.15;;;4.40;99.90;;;;;;4876877;29;20076;-78
2023/01/25 10:21:39;;;;;;;32.22;18.10;;;4.30;99.90;;;;;;4868120;29;20483;-78
2023/01/25 10:24:38;;;;;;;32.03;18.40;;;4.30;99.90;;;;;;4878892;29;20228;-78
2023/01/25 10:27:19;;;;;;;36.70;18.25;;;4.20;99.90;;;;;;4868319;29;20045;-77
2023/01/25 10:29:47;;;;;;;38.20;19.05;;;4.20;99.90;;;;;;4873909;29;20151;-78
2023/01/25 10:32:33;;;;;;;34.85;17.60;;;4.20;99.90;;;;;;4857508;29;20140;-78
2023/01/25 10:35:15;;;;;;;36.45;19.10;;;4.20;99.90;;;;;;4880129;29;20076;-78
2023/01/25 10:38:05;;;;;;;39.03;19.70;;;4.20;99.90;;;;;;4886212;29;20071;-77
2023/01/25 10:40:45;;;;;;;34.15;19.27;;;4.20;99.90;;;;;;4883086;29;20085;-78
2023/01/25 10:43:20;;;;;;;34.88;19.08;;;4.10;99.90;;;;;;4883840;29;20125;-78
2023/01/25 10:45:48;;;;;;;35.72;19.50;;;4.20;99.90;;;;;;4883765;29;20048;-77
2023/01/25 10:48:36;;;;;;;35.20;19.17;;;4.20;99.90;;;;;;4888780;29;20049;-78
2023/01/25 10:51:03;;;;;;;37.17;20.00;;;4.20;99.90;;;;;;4891209;29;20101;-78
2023/01/25 10:53:35;;;;;;;39.75;18.67;;;4.20;99.90;;;;;;4883869;29;20080;-78
2023/01/25 10:56:21;;;;;;;37.42;19.70;;;4.20;99.90;;;;;;4884477;29;20049;-78
2023/01/25 10:58:50;;;;;;;37.40;20.45;;;4.20;99.90;;;;;;4871504;29;20184;-78
2023/01/25 11:01:29;;;;;;;34.47;18.38;;;4.10;99.90;;;;;;4880911;29;20049;-77
2023/01/25 11:03:58;;;;;;;35.08;18.08;;;4.10;99.90;;;;;;4879693;29;20045;-79
2023/01/25 11:06:49;;;;;;;37.85;19.08;;;4.10;99.90;;;;;;4893203;29;20100;-79
2023/01/25 11:09:21;;;;;;;32.05;18.63;;;4.10;99.90;;;;;;4892481;29;20076;-78
2023/01/25 11:11:59;;;;;;;37.58;20.92;;;4.10;99.90;;;;;;4884563;29;20092;-78
2023/01/25 11:14:29;;;;;;;43.13;20.42;;;4.00;99.90;;;;;;4867941;29;20060;-78
2023/01/25 11:16:57;;;;;;;32.22;17.55;;;4.00;99.90;;;;;;4883263;29;20510;-78
2023/01/25 11:19:26;;;;;;;38.28;20.65;;;4.10;99.90;;;;;;4875405;29;20143;-78
2023/01/25 11:21:56;;;;;;;35.00;19.48;;;4.10;99.90;;;;;;4881220;29;20128;-78
2023/01/25 11:24:27;;;;;;;;;;;4.10;99.90;;;;;;4874476;29;20080;-78
2023/01/25 11:27:10;;;;;;;37.28;18.45;;;4.10;99.90;;;;;;4880351;29;19931;-78
2023/01/25 11:29:37;;;;;;;35.72;18.55;;;4.00;99.90;;;;;;4875727;29;20049;-78
2023/01/25 11:32:15;;;;;;;36.63;18.00;;;4.00;99.90;;;;;;4875093;29;20063;-78
2023/01/25 11:34:42;;;;;;;32.95;18.45;;;3.90;99.90;;;;;;4880762;29;20057;-78
2023/01/25 11:37:29;;;;;;;37.75;18.75;;;4.00;99.90;;;;;;4880626;29;20053;-79
2023/01/25 11:40:21;;;;;;;36.90;18.30;;;3.90;99.90;;;;;;4880192;29;20059;-77
2023/01/25 11:43:05;;;;;;;34.80;18.02;;;3.90;99.90;;;;;;4876489;29;20140;-78
2023/01/25 11:45:38;;;;;;;35.78;18.40;;;4.00;99.90;;;;;;4873843;29;20117;-78
2023/01/25 11:48:46;;;;;;;36.92;19.17;;;4.00;99.90;;;;;;4881887;29;20044;-78
2023/01/25 11:51:50;;;;;;;37.20;17.95;;;4.00;99.90;;;;;;4881906;29;20091;-78
2023/01/25 11:54:22;;;;;;;29.42;17.23;;;4.10;99.90;;;;;;4882384;29;20086;-78
2023/01/25 11:56:58;;;;;;;35.55;19.40;;;4.00;99.90;;;;;;4880944;29;20524;-78
2023/01/25 12:00:13;;;;;;;36.25;20.17;;;4.10;99.90;;;;;;4879401;29;20132;-78
2023/01/25 12:03:06;;;;;;;35.42;18.40;;;4.10;99.90;;;;;;4879871;29;20097;-78
2023/01/25 12:05:35;;;;;;;38.50;18.77;;;4.20;99.90;;;;;;4878257;29;20131;-78
2023/01/25 12:08:17;;;;;;;32.33;18.67;;;4.10;99.90;;;;;;4887332;29;20041;-78
2023/01/25 12:11:05;;;;;;;31.23;17.88;;;4.20;99.90;;;;;;4877041;29;20505;-78
2023/01/25 12:13:57;;;;;;;28.90;17.38;;;4.20;99.90;;;;;;4877526;29;20056;-78
2023/01/25 12:16:40;;;;;;;31.70;17.23;;;4.20;99.90;;;;;;4893735;29;20076;-78
2023/01/25 12:19:28;;;;;;;35.45;17.83;;;4.10;99.90;;;;;;4891435;29;20087;-78
2023/01/25 12:22:14;;;;;;;31.77;18.38;;;4.10;99.90;;;;;;4877911;29;20051;-78
2023/01/25 12:24:59;;;;;;;32.40;17.90;;;4.20;99.90;;;;;;4889970;29;20056;-78
2023/01/25 12:27:25;;;;;;;31.67;17.67;;;4.10;99.90;;;;;;4875946;29;20049;-78
2023/01/25 12:30:28;;;;;;;34.22;17.67;;;4.20;99.90;;;;;;4881768;29;20044;-78
2023/01/25 12:33:04;;;;;;;34.67;17.73;;;4.20;99.90;;;;;;4883119;29;20578;-78
2023/01/25 12:35:55;;;;;;;32.40;17.15;;;4.20;99.90;;;;;;4883611;29;20073;-78
2023/01/25 12:38:49;;;;;;;29.45;15.43;;;4.20;99.90;;;;;;4869009;29;20072;-78
2023/01/25 12:41:44;;;;;;;25.92;15.45;;;4.20;99.90;;;;;;4873274;29;20422;-78
2023/01/25 12:44:32;;;;;;;27.58;15.35;;;4.10;99.90;;;;;;4888088;29;20072;-77
2023/01/25 12:47:08;;;;;;;25.33;15.55;;;4.10;99.90;;;;;;4883555;29;20077;-78
2023/01/25 12:50:22;;;;;;;27.42;15.32;;;4.10;99.90;;;;;;4880686;29;20072;-77
2023/01/25 12:52:56;;;;;;;24.83;14.70;;;4.00;99.90;;;;;;4840760;29;20045;-78
2023/01/25 12:55:24;;;;;;;24.15;13.90;;;4.00;99.90;;;;;;4882038;29;20135;-77
2023/01/25 12:58:06;;;;;;;26.58;13.95;;;4.00;99.90;;;;;;4885391;29;20056;-77
2023/01/25 13:00:36;;;;;;;28.20;15.80;;;4.00;99.90;;;;;;4882914;29;20053;-77